Time;durP1;ratioP1;P1;durP2;ratioP2;P2;SDS_P1;SDS_P2;PMS_P1;PMS_P2;Temp;Humidity;BMP_temperature;BMP_pressure;BME280_temperature;BME280_humidity;BME280_pressure;Samples;Min_cycle;Max_cycle;Signal;HPM_P1;HPM_P2
2022/01/20 00:01:41;;;;;;;1.50;1.23;;;;;;;;;;5030759;28;20057;-63
2022/01/20 00:04:16;;;;;;;3.10;2.80;;;;;;;;;;5040040;28;20021;-62
2022/01/20 00:09:38;;;;;;;2.75;2.47;;;;;;;;;;5030828;28;20033;-63
2022/01/20 00:26:06;;;;;;;3.78;3.38;;;;;;;;;;4970628;28;20483;-63
2022/01/20 00:28:41;;;;;;;3.00;2.70;;;;;;;;;;4953904;28;20035;-63
2022/01/20 00:33:43;;;;;;;3.03;2.78;;;;;;;;;;4969929;28;20022;-63
2022/01/20 00:38:35;;;;;;;3.17;2.55;;;;;;;;;;4969387;28;20031;-63
2022/01/20 00:41:01;;;;;;;3.50;2.50;;;;;;;;;;4969850;28;20042;-63
2022/01/20 00:43:26;;;;;;;3.37;3.00;;;;;;;;;;4962486;28;20031;-64
2022/01/20 00:45:51;;;;;;;2.77;2.53;;;;;;;;;;4968457;28;20029;-63
2022/01/20 00:48:17;;;;;;;2.23;1.87;;;;;;;;;;4965558;28;20045;-63
2022/01/20 00:50:42;;;;;;;3.20;2.17;;;;;;;;;;4967194;28;20035;-64
2022/01/20 00:53:07;;;;;;;2.23;1.90;;;;;;;;;;4958385;28;20053;-64
2022/01/20 00:55:33;;;;;;;2.87;2.43;;;;;;;;;;4971919;28;20035;-64
2022/01/20 00:57:58;;;;;;;2.77;2.57;;;;;;;;;;4973811;28;20031;-63
2022/01/20 01:00:24;;;;;;;2.07;1.90;;;;;;;;;;5014064;28;20478;-63
2022/01/20 01:02:49;;;;;;;2.63;2.27;;;;;;;;;;5034124;28;20041;-63
2022/01/20 01:05:14;;;;;;;1.40;1.30;;;;;;;;;;5034446;28;20033;-63
2022/01/20 01:10:08;;;;;;;1.93;1.73;;;;;;;;;;5033347;28;20045;-63
2022/01/20 01:12:45;;;;;;;1.57;1.43;;;;;;;;;;5029927;28;20501;-63
2022/01/20 01:15:17;;;;;;;1.90;1.70;;;;;;;;;;5032668;28;20532;-63
2022/01/20 01:20:29;;;;;;;1.47;1.33;;;;;;;;;;5045312;28;20568;-63
2022/01/20 01:22:54;;;;;;;1.90;1.50;;;;;;;;;;5032928;28;20395;-63
2022/01/20 01:25:20;;;;;;;2.57;2.33;;;;;;;;;;5034465;28;20037;-63
2022/01/20 01:27:46;;;;;;;2.43;1.70;;;;;;;;;;5034618;28;20040;-63
2022/01/20 01:30:38;;;;;;;1.10;0.83;;;;;;;;;;5016627;28;20116;-63
2022/01/20 01:33:05;;;;;;;2.73;1.80;;;;;;;;;;5033464;28;20539;-63
2022/01/20 01:35:33;;;;;;;1.60;1.50;;;;;;;;;;5033412;28;20554;-63
2022/01/20 01:40:30;;;;;;;2.75;2.55;;;;;;;;;;5034654;28;20037;-63
2022/01/20 01:42:56;;;;;;;2.00;1.80;;;;;;;;;;5029252;28;20025;-63
2022/01/20 01:45:26;;;;;;;1.98;1.80;;;;;;;;;;5020911;28;20096;-63
2022/01/20 01:47:51;;;;;;;1.07;0.93;;;;;;;;;;5032278;28;20029;-63
2022/01/20 01:50:16;;;;;;;2.13;1.93;;;;;;;;;;5016067;28;20025;-64
2022/01/20 01:52:42;;;;;;;1.75;1.10;;;;;;;;;;5032532;28;20060;-64
2022/01/20 01:55:08;;;;;;;2.25;1.70;;;;;;;;;;5032549;28;20022;-64
2022/01/20 01:57:34;;;;;;;3.42;2.80;;;;;;;;;;5032765;28;20152;-64
2022/01/20 02:00:00;;;;;;;2.40;2.20;;;;;;;;;;5033781;28;20113;-64
2022/01/20 02:02:25;;;;;;;1.83;1.13;;;;;;;;;;5041140;28;20021;-64
2022/01/20 02:04:51;;;;;;;1.20;1.10;;;;;;;;;;5037174;28;20044;-64
2022/01/20 02:20:54;;;;;;;2.13;0.73;;;;;;;;;;5035796;28;20120;-64
2022/01/20 02:23:19;;;;;;;4.30;0.80;;;;;;;;;;5031160;28;20021;-64
2022/01/20 02:25:46;;;;;;;1.50;0.57;;;;;;;;;;5034669;28;20115;-63
2022/01/20 02:28:11;;;;;;;3.43;1.10;;;;;;;;;;5021867;28;20022;-63
2022/01/20 02:30:37;;;;;;;2.10;0.65;;;;;;;;;;5030948;28;20501;-63
2022/01/20 02:33:07;;;;;;;2.53;1.30;;;;;;;;;;5019445;28;20039;-64
2022/01/20 02:35:34;;;;;;;3.88;1.35;;;;;;;;;;5050667;28;20037;-63
2022/01/20 02:38:07;;;;;;;1.40;1.20;;;;;;;;;;5036207;28;20506;-64
2022/01/20 02:45:50;;;;;;;5.93;1.87;;;;;;;;;;5030712;28;20119;-64
2022/01/20 02:48:15;;;;;;;6.77;1.80;;;;;;;;;;5030405;28;20105;-64
2022/01/20 02:50:41;;;;;;;6.57;1.50;;;;;;;;;;5030336;28;20190;-63
2022/01/20 02:53:06;;;;;;;4.70;1.80;;;;;;;;;;5045073;28;20064;-63
2022/01/20 02:55:31;;;;;;;7.80;2.57;;;;;;;;;;5032833;28;20043;-63
2022/01/20 02:57:56;;;;;;;10.13;1.50;;;;;;;;;;5032732;28;20401;-63
2022/01/20 03:00:22;;;;;;;5.67;1.50;;;;;;;;;;5029867;28;20064;-63
2022/01/20 03:02:48;;;;;;;4.50;0.87;;;;;;;;;;5031945;28;20013;-63
2022/01/20 03:05:13;;;;;;;5.80;1.20;;;;;;;;;;5014442;28;20040;-63
2022/01/20 03:07:38;;;;;;;8.57;1.10;;;;;;;;;;5032244;28;20021;-63
2022/01/20 03:10:04;;;;;;;7.97;1.07;;;;;;;;;;5031051;28;20033;-63
2022/01/20 03:12:29;;;;;;;6.07;0.90;;;;;;;;;;5028662;28;20025;-62
2022/01/20 03:14:55;;;;;;;9.47;1.17;;;;;;;;;;5030691;28;20189;-63
2022/01/20 03:17:20;;;;;;;8.23;1.37;;;;;;;;;;5031117;28;20048;-63
2022/01/20 03:19:45;;;;;;;5.20;0.77;;;;;;;;;;5030353;28;20504;-63
2022/01/20 03:22:10;;;;;;;6.97;0.80;;;;;;;;;;5031057;28;20071;-64
2022/01/20 03:24:35;;;;;;;4.97;0.93;;;;;;;;;;5031136;28;20033;-63
2022/01/20 03:27:01;;;;;;;5.27;0.50;;;;;;;;;;5038976;28;20036;-64
2022/01/20 03:29:26;;;;;;;4.17;0.43;;;;;;;;;;5043165;28;20072;-63
2022/01/20 03:31:51;;;;;;;6.67;0.50;;;;;;;;;;5014224;28;20183;-63
2022/01/20 03:34:16;;;;;;;10.03;1.10;;;;;;;;;;5030776;28;20033;-63
2022/01/20 03:36:41;;;;;;;5.97;1.23;;;;;;;;;;5030642;28;20470;-63
2022/01/20 03:39:07;;;;;;;12.67;1.97;;;;;;;;;;5031595;28;20087;-63
2022/01/20 03:41:32;;;;;;;4.13;0.50;;;;;;;;;;5031207;28;20424;-63
2022/01/20 03:43:57;;;;;;;4.77;0.80;;;;;;;;;;5025706;28;20049;-63
2022/01/20 03:46:23;;;;;;;7.93;0.90;;;;;;;;;;5041362;28;20025;-65
2022/01/20 03:49:03;;;;;;;9.60;1.23;;;;;;;;;;5030590;28;20084;-64
2022/01/20 03:51:28;;;;;;;4.20;0.43;;;;;;;;;;5033650;28;20053;-64
2022/01/20 03:53:54;;;;;;;3.50;0.40;;;;;;;;;;5046973;28;20662;-64
2022/01/20 03:56:19;;;;;;;6.73;0.77;;;;;;;;;;5031627;28;20112;-64
2022/01/20 03:58:45;;;;;;;9.37;0.87;;;;;;;;;;5030549;28;20032;-64
2022/01/20 04:01:11;;;;;;;4.23;0.70;;;;;;;;;;5028088;28;20029;-63
2022/01/20 04:03:36;;;;;;;3.80;0.53;;;;;;;;;;5050660;28;20100;-64
2022/01/20 04:06:01;;;;;;;3.60;0.33;;;;;;;;;;5042739;28;20021;-63
2022/01/20 04:08:30;;;;;;;8.67;0.83;;;;;;;;;;5031424;28;20104;-64
2022/01/20 04:10:55;;;;;;;7.73;0.97;;;;;;;;;;5034438;28;20119;-64
2022/01/20 04:13:21;;;;;;;6.17;0.70;;;;;;;;;;5032868;28;20109;-64
2022/01/20 04:15:48;;;;;;;3.73;0.23;;;;;;;;;;5029820;28;20033;-64
2022/01/20 04:18:19;;;;;;;3.63;0.40;;;;;;;;;;5030194;28;20017;-65
2022/01/20 04:20:44;;;;;;;8.33;0.60;;;;;;;;;;5030871;28;20026;-64
2022/01/20 04:23:10;;;;;;;3.83;0.50;;;;;;;;;;5030190;28;20026;-64
2022/01/20 04:25:35;;;;;;;5.13;0.93;;;;;;;;;;5031568;28;20033;-64
2022/01/20 04:28:00;;;;;;;7.90;0.83;;;;;;;;;;5042611;28;20354;-64
2022/01/20 04:30:25;;;;;;;6.90;0.93;;;;;;;;;;5040890;28;20030;-64
2022/01/20 04:32:50;;;;;;;8.17;0.53;;;;;;;;;;5035374;28;20033;-64
2022/01/20 04:35:19;;;;;;;8.13;0.70;;;;;;;;;;5034384;28;20521;-63
2022/01/20 04:37:44;;;;;;;8.17;0.87;;;;;;;;;;5035596;28;20445;-64
2022/01/20 04:40:10;;;;;;;4.43;0.87;;;;;;;;;;5039271;28;20192;-65
2022/01/20 04:42:37;;;;;;;8.13;0.97;;;;;;;;;;5037266;28;20116;-65
2022/01/20 04:45:07;;;;;;;8.93;0.60;;;;;;;;;;5034144;28;20493;-65
2022/01/20 04:47:42;;;;;;;3.87;0.57;;;;;;;;;;5033077;28;20033;-65
2022/01/20 04:58:19;;;;;;;4.80;0.87;;;;;;;;;;5035047;28;20321;-65
2022/01/20 05:00:44;;;;;;;3.60;0.40;;;;;;;;;;5033589;28;20037;-65
2022/01/20 05:03:10;;;;;;;7.57;0.67;;;;;;;;;;5035028;28;20026;-65
2022/01/20 05:05:35;;;;;;;8.43;0.90;;;;;;;;;;5032829;28;20055;-65
2022/01/20 05:08:01;;;;;;;10.17;1.60;;;;;;;;;;5033709;28;20080;-65
2022/01/20 05:10:28;;;;;;;4.63;0.93;;;;;;;;;;5033026;28;20470;-65
2022/01/20 05:15:20;;;;;;;5.07;0.60;;;;;;;;;;5030211;28;20040;-66
2022/01/20 05:17:45;;;;;;;5.53;0.70;;;;;;;;;;5034377;28;20033;-64
2022/01/20 05:20:10;;;;;;;5.50;0.83;;;;;;;;;;5027652;28;20029;-64
2022/01/20 05:22:35;;;;;;;8.13;0.60;;;;;;;;;;5032184;28;20032;-64
2022/01/20 05:25:02;;;;;;;9.53;0.80;;;;;;;;;;5015832;28;20041;-65
2022/01/20 05:27:27;;;;;;;14.27;1.87;;;;;;;;;;5048409;28;20040;-63
2022/01/20 05:29:53;;;;;;;6.13;0.77;;;;;;;;;;5034457;28;20021;-64
2022/01/20 05:32:19;;;;;;;7.23;0.97;;;;;;;;;;5033623;28;20493;-64
2022/01/20 05:34:44;;;;;;;7.10;1.10;;;;;;;;;;5015228;28;20076;-64
2022/01/20 05:37:10;;;;;;;8.70;1.30;;;;;;;;;;5033917;28;20025;-64
2022/01/20 05:39:35;;;;;;;5.90;0.80;;;;;;;;;;5016078;28;20441;-64
2022/01/20 05:42:00;;;;;;;10.70;1.60;;;;;;;;;;5031056;28;20458;-64
2022/01/20 05:44:25;;;;;;;4.90;0.97;;;;;;;;;;5031730;28;20108;-64
2022/01/20 05:46:52;;;;;;;5.90;0.83;;;;;;;;;;5032161;28;20044;-63
2022/01/20 05:49:21;;;;;;;6.33;1.20;;;;;;;;;;5041022;28;20093;-64
2022/01/20 05:51:47;;;;;;;7.70;0.60;;;;;;;;;;5048478;28;20437;-64
2022/01/20 05:54:12;;;;;;;6.13;1.30;;;;;;;;;;5034167;28;20393;-64
2022/01/20 05:56:37;;;;;;;8.07;0.80;;;;;;;;;;5032416;28;20132;-64
2022/01/20 05:59:03;;;;;;;3.73;0.50;;;;;;;;;;5038955;28;20066;-64
2022/01/20 06:01:31;;;;;;;7.63;1.20;;;;;;;;;;5038046;28;20104;-64
2022/01/20 06:03:57;;;;;;;8.73;1.17;;;;;;;;;;5042953;28;20080;-63
2022/01/20 06:06:22;;;;;;;7.70;1.37;;;;;;;;;;5052316;28;20055;-64
2022/01/20 06:08:47;;;;;;;6.47;0.93;;;;;;;;;;5037231;28;20120;-64
2022/01/20 06:11:13;;;;;;;10.57;2.20;;;;;;;;;;5031446;28;20033;-64
2022/01/20 06:13:38;;;;;;;11.73;1.13;;;;;;;;;;5024712;28;20024;-64
2022/01/20 06:16:03;;;;;;;6.03;0.60;;;;;;;;;;5018954;28;20026;-64
2022/01/20 06:18:29;;;;;;;5.67;0.80;;;;;;;;;;5027795;28;20042;-64
2022/01/20 06:20:54;;;;;;;9.37;1.23;;;;;;;;;;5030833;28;20021;-65
2022/01/20 06:23:20;;;;;;;7.50;0.93;;;;;;;;;;5031289;28;20024;-65
2022/01/20 06:25:45;;;;;;;4.90;0.57;;;;;;;;;;5032218;28;20076;-64
2022/01/20 06:28:11;;;;;;;6.13;0.90;;;;;;;;;;5033097;28;20100;-63
2022/01/20 06:30:36;;;;;;;9.33;1.20;;;;;;;;;;5022094;28;20420;-65
2022/01/20 06:33:01;;;;;;;6.37;1.07;;;;;;;;;;5032711;28;20032;-65
2022/01/20 06:35:27;;;;;;;7.53;1.30;;;;;;;;;;5031109;28;20663;-65
2022/01/20 06:37:52;;;;;;;8.47;0.80;;;;;;;;;;5033645;28;20535;-64
2022/01/20 06:40:17;;;;;;;5.80;0.70;;;;;;;;;;5014151;28;20026;-65
2022/01/20 06:42:43;;;;;;;9.73;0.90;;;;;;;;;;5022699;28;20101;-65
2022/01/20 06:45:09;;;;;;;5.50;0.80;;;;;;;;;;5025231;28;20123;-65
2022/01/20 06:47:34;;;;;;;9.50;0.80;;;;;;;;;;5027707;28;20045;-66
2022/01/20 06:50:00;;;;;;;8.13;1.07;;;;;;;;;;5030791;28;20091;-66
2022/01/20 06:52:25;;;;;;;11.70;1.37;;;;;;;;;;5025360;28;20086;-65
2022/01/20 06:54:51;;;;;;;8.33;1.13;;;;;;;;;;5031083;28;20144;-64
2022/01/20 06:57:16;;;;;;;9.20;1.13;;;;;;;;;;5029003;28;20034;-65
2022/01/20 06:59:41;;;;;;;7.77;0.80;;;;;;;;;;5016678;28;20021;-65
2022/01/20 07:02:06;;;;;;;4.57;0.70;;;;;;;;;;5028572;28;20013;-65
2022/01/20 07:04:32;;;;;;;7.50;1.03;;;;;;;;;;5033024;28;20033;-65
2022/01/20 07:06:58;;;;;;;8.10;0.50;;;;;;;;;;5031718;28;20029;-65
2022/01/20 07:09:23;;;;;;;10.93;0.60;;;;;;;;;;5031843;28;20025;-64
2022/01/20 07:11:48;;;;;;;9.77;0.67;;;;;;;;;;5028237;28;20117;-69
2022/01/20 07:14:14;;;;;;;6.20;0.33;;;;;;;;;;5016954;28;20037;-69
2022/01/20 07:16:39;;;;;;;6.83;1.00;;;;;;;;;;5026429;28;20442;-69
2022/01/20 07:19:04;;;;;;;5.33;1.13;;;;;;;;;;5012065;28;20438;-72
2022/01/20 07:21:29;;;;;;;3.03;0.50;;;;;;;;;;5021591;28;20512;-71
2022/01/20 07:23:55;;;;;;;5.10;0.83;;;;;;;;;;5027858;28;20021;-70
2022/01/20 07:26:20;;;;;;;7.40;0.73;;;;;;;;;;5032176;28;20018;-68
2022/01/20 07:28:45;;;;;;;5.83;1.17;;;;;;;;;;5031785;28;20017;-70
2022/01/20 07:31:10;;;;;;;4.53;0.87;;;;;;;;;;5026535;28;20022;-69
2022/01/20 07:33:36;;;;;;;8.03;1.00;;;;;;;;;;5032124;28;20497;-68
2022/01/20 07:36:01;;;;;;;7.07;1.23;;;;;;;;;;5031157;28;20108;-70
2022/01/20 07:38:27;;;;;;;3.93;0.60;;;;;;;;;;5024831;28;20017;-70
2022/01/20 07:40:52;;;;;;;6.23;0.70;;;;;;;;;;5026346;28;20025;-69
2022/01/20 07:43:17;;;;;;;5.23;0.60;;;;;;;;;;5025189;28;20029;-70
2022/01/20 07:45:43;;;;;;;5.00;0.43;;;;;;;;;;5032020;28;20497;-69
2022/01/20 07:48:08;;;;;;;5.40;0.53;;;;;;;;;;5025872;28;20021;-68
2022/01/20 07:50:33;;;;;;;5.53;0.40;;;;;;;;;;5028582;28;20071;-69
2022/01/20 07:52:58;;;;;;;5.63;0.30;;;;;;;;;;5022012;28;20471;-69
2022/01/20 07:55:24;;;;;;;9.27;0.57;;;;;;;;;;5014425;28;20057;-70
2022/01/20 07:57:49;;;;;;;1.93;0.37;;;;;;;;;;5041973;28;20028;-70
2022/01/20 08:00:15;;;;;;;7.07;1.50;;;;;;;;;;5020861;28;20036;-71
2022/01/20 08:02:40;;;;;;;3.70;0.40;;;;;;;;;;5026289;28;20084;-72
2022/01/20 08:05:05;;;;;;;5.27;0.53;;;;;;;;;;5011726;28;20434;-72
2022/01/20 08:07:31;;;;;;;6.53;0.87;;;;;;;;;;5017847;28;20017;-73
2022/01/20 08:09:59;;;;;;;4.63;0.47;;;;;;;;;;5030530;28;20129;-72
2022/01/20 08:12:25;;;;;;;4.37;1.57;;;;;;;;;;5009863;28;20080;-70
2022/01/20 08:14:50;;;;;;;3.47;0.60;;;;;;;;;;5010159;28;20053;-72
2022/01/20 08:17:15;;;;;;;2.63;0.50;;;;;;;;;;5012866;28;20461;-70
2022/01/20 08:19:41;;;;;;;1.90;0.50;;;;;;;;;;5012964;28;20060;-72
2022/01/20 08:22:07;;;;;;;2.23;0.50;;;;;;;;;;5017993;28;20596;-72
2022/01/20 08:24:32;;;;;;;7.90;0.80;;;;;;;;;;5031925;28;20017;-72
2022/01/20 08:26:57;;;;;;;10.77;0.57;;;;;;;;;;5030491;28;20029;-72
2022/01/20 08:29:22;;;;;;;3.37;0.20;;;;;;;;;;5012797;28;20491;-71
2022/01/20 08:31:48;;;;;;;10.20;1.00;;;;;;;;;;5031375;28;20021;-71
2022/01/20 08:34:13;;;;;;;7.40;0.60;;;;;;;;;;5013561;28;20029;-71
2022/01/20 08:36:38;;;;;;;3.83;0.40;;;;;;;;;;5030302;28;20026;-70
2022/01/20 08:39:20;;;;;;;6.50;0.87;;;;;;;;;;5027354;28;20129;-70
2022/01/20 08:41:45;;;;;;;1.03;0.33;;;;;;;;;;5026887;28;20017;-69
2022/01/20 08:44:10;;;;;;;4.63;0.47;;;;;;;;;;5016189;28;20367;-70
2022/01/20 08:46:38;;;;;;;2.87;0.60;;;;;;;;;;5026095;28;20466;-70
2022/01/20 08:49:03;;;;;;;4.23;0.53;;;;;;;;;;5037335;28;20029;-70
2022/01/20 08:51:28;;;;;;;10.00;0.73;;;;;;;;;;5039762;28;20021;-70
2022/01/20 08:53:53;;;;;;;4.63;0.40;;;;;;;;;;5013479;28;20099;-71
2022/01/20 08:56:20;;;;;;;6.07;0.53;;;;;;;;;;5013491;28;20421;-71
2022/01/20 08:58:45;;;;;;;3.70;0.37;;;;;;;;;;5013240;28;20037;-71
2022/01/20 09:01:10;;;;;;;5.27;0.93;;;;;;;;;;5029332;28;20025;-71
2022/01/20 09:03:36;;;;;;;8.37;1.60;;;;;;;;;;5009907;28;20022;-71
2022/01/20 09:06:02;;;;;;;8.17;0.93;;;;;;;;;;5010877;28;20494;-72
2022/01/20 09:08:27;;;;;;;9.37;0.87;;;;;;;;;;5019115;28;20083;-72
2022/01/20 09:10:55;;;;;;;5.33;0.37;;;;;;;;;;5029518;28;20018;-71
2022/01/20 09:16:04;;;;;;;6.87;0.40;;;;;;;;;;5029271;28;20036;-73
2022/01/20 09:18:30;;;;;;;4.27;1.13;;;;;;;;;;5020449;28;20017;-74
2022/01/20 09:20:55;;;;;;;7.07;0.90;;;;;;;;;;5032812;28;20664;-72
2022/01/20 09:23:20;;;;;;;4.87;0.57;;;;;;;;;;5032877;28;20021;-72
2022/01/20 09:25:49;;;;;;;3.93;0.53;;;;;;;;;;5016985;28;20548;-74
2022/01/20 09:28:14;;;;;;;6.73;0.60;;;;;;;;;;5034186;28;20602;-72
2022/01/20 09:30:40;;;;;;;4.90;0.60;;;;;;;;;;5027046;28;20124;-73
2022/01/20 09:33:13;;;;;;;2.67;0.67;;;;;;;;;;5021029;28;20033;-73
2022/01/20 09:35:39;;;;;;;11.47;0.73;;;;;;;;;;5014210;28;20026;-73
2022/01/20 09:38:05;;;;;;;4.50;0.60;;;;;;;;;;5035716;28;20060;-73
2022/01/20 09:40:31;;;;;;;7.57;0.77;;;;;;;;;;5032513;28;20112;-73
2022/01/20 09:42:56;;;;;;;3.07;0.47;;;;;;;;;;5008301;28;20037;-73
2022/01/20 09:45:21;;;;;;;5.13;0.97;;;;;;;;;;5026376;28;20029;-74
2022/01/20 09:47:47;;;;;;;5.63;0.53;;;;;;;;;;5021201;28;20033;-73
2022/01/20 09:50:19;;;;;;;5.40;0.50;;;;;;;;;;5037438;28;20037;-73
2022/01/20 09:52:44;;;;;;;4.17;0.70;;;;;;;;;;5026010;28;20104;-73
2022/01/20 09:55:10;;;;;;;4.13;0.40;;;;;;;;;;5027981;28;20137;-73
2022/01/20 09:57:35;;;;;;;6.43;0.50;;;;;;;;;;5032204;28;20037;-72
2022/01/20 10:00:01;;;;;;;6.37;1.00;;;;;;;;;;5019570;28;20374;-73
2022/01/20 10:02:26;;;;;;;3.53;0.37;;;;;;;;;;5020352;28;20375;-72
2022/01/20 10:04:52;;;;;;;6.63;0.40;;;;;;;;;;5031084;28;20040;-73
2022/01/20 10:07:18;;;;;;;5.83;0.30;;;;;;;;;;5033500;28;20410;-73
2022/01/20 10:09:45;;;;;;;6.60;1.67;;;;;;;;;;5030874;28;20120;-73
2022/01/20 10:12:12;;;;;;;5.80;0.80;;;;;;;;;;5028890;28;20075;-73
2022/01/20 10:14:57;;;;;;;8.30;0.70;;;;;;;;;;5029878;28;20398;-73
2022/01/20 10:17:31;;;;;;;11.73;0.73;;;;;;;;;;5031883;28;20423;-74
2022/01/20 10:20:05;;;;;;;5.45;0.60;;;;;;;;;;5031768;28;20021;-71
2022/01/20 10:22:31;;;;;;;9.90;0.80;;;;;;;;;;5031458;28;20026;-70
2022/01/20 10:25:04;;;;;;;5.10;0.30;;;;;;;;;;5032591;28;20052;-70
2022/01/20 10:27:31;;;;;;;6.27;0.57;;;;;;;;;;5035514;28;20025;-70
2022/01/20 10:30:01;;;;;;;2.13;0.20;;;;;;;;;;5033225;28;20116;-70
2022/01/20 10:32:26;;;;;;;7.30;0.57;;;;;;;;;;5029243;28;20096;-69
2022/01/20 10:35:05;;;;;;;6.60;1.03;;;;;;;;;;5024691;28;20482;-69
2022/01/20 10:37:30;;;;;;;7.70;1.37;;;;;;;;;;5031539;28;20029;-69
2022/01/20 10:40:03;;;;;;;4.50;0.90;;;;;;;;;;5023404;28;20091;-69
2022/01/20 10:42:34;;;;;;;5.37;1.17;;;;;;;;;;5018929;28;20028;-69
2022/01/20 10:44:59;;;;;;;6.13;0.80;;;;;;;;;;5024139;28;20056;-69
2022/01/20 10:47:26;;;;;;;7.05;0.60;;;;;;;;;;5014205;28;20069;-70
2022/01/20 10:49:51;;;;;;;5.22;0.90;;;;;;;;;;5030883;28;20043;-71
2022/01/20 10:52:18;;;;;;;7.35;0.82;;;;;;;;;;5017364;28;20585;-70
2022/01/20 10:54:48;;;;;;;7.65;1.33;;;;;;;;;;5018011;28;20108;-70
2022/01/20 10:57:15;;;;;;;8.32;0.95;;;;;;;;;;5047498;28;20386;-71
2022/01/20 10:59:48;;;;;;;5.95;0.52;;;;;;;;;;5026662;28;20018;-71
2022/01/20 11:02:13;;;;;;;8.23;0.88;;;;;;;;;;5026678;28;20036;-71
2022/01/20 11:04:39;;;;;;;7.13;0.70;;;;;;;;;;5013082;28;20402;-71
2022/01/20 11:07:07;;;;;;;8.20;0.80;;;;;;;;;;5030939;28;20028;-71
2022/01/20 11:09:35;;;;;;;5.80;0.70;;;;;;;;;;5028999;28;20021;-71
2022/01/20 11:12:01;;;;;;;9.67;0.80;;;;;;;;;;5028667;28;20111;-72
2022/01/20 11:14:28;;;;;;;3.83;0.90;;;;;;;;;;5020778;28;20265;-72
2022/01/20 11:16:53;;;;;;;7.33;0.77;;;;;;;;;;5029646;28;20604;-73
2022/01/20 11:19:20;;;;;;;7.27;1.30;;;;;;;;;;5030017;28;20112;-71
2022/01/20 11:21:45;;;;;;;4.37;0.70;;;;;;;;;;5021846;28;20144;-72
2022/01/20 11:24:17;;;;;;;9.77;1.43;;;;;;;;;;5030309;28;20056;-73
2022/01/20 11:26:57;;;;;;;6.67;0.83;;;;;;;;;;5032196;28;20026;-74
2022/01/20 11:29:25;;;;;;;10.23;0.87;;;;;;;;;;5030831;28;20018;-74
2022/01/20 11:31:50;;;;;;;4.47;0.43;;;;;;;;;;5015030;28;20359;-73
2022/01/20 11:34:17;;;;;;;6.07;0.55;;;;;;;;;;5032282;28;20465;-73
2022/01/20 11:36:42;;;;;;;4.85;0.65;;;;;;;;;;5031554;28;20026;-73
2022/01/20 11:39:07;;;;;;;7.82;1.35;;;;;;;;;;5045608;28;20087;-74
2022/01/20 11:41:49;;;;;;;6.40;1.10;;;;;;;;;;5031692;28;20028;-74
2022/01/20 11:44:16;;;;;;;4.82;0.98;;;;;;;;;;5024801;28;20029;-74
2022/01/20 11:46:44;;;;;;;9.95;1.05;;;;;;;;;;5028963;28;20064;-74
2022/01/20 11:49:10;;;;;;;9.00;1.35;;;;;;;;;;5035435;28;20022;-74
2022/01/20 11:51:52;;;;;;;5.28;0.60;;;;;;;;;;5021227;28;20101;-74
2022/01/20 11:54:37;;;;;;;6.65;0.65;;;;;;;;;;5030810;28;20029;-73
2022/01/20 11:57:06;;;;;;;6.18;0.77;;;;;;;;;;5030025;28;20034;-73
2022/01/20 11:59:35;;;;;;;7.70;0.60;;;;;;;;;;5029285;28;20108;-73
2022/01/20 12:02:00;;;;;;;9.90;1.13;;;;;;;;;;5029924;28;20067;-73
2022/01/20 12:04:33;;;;;;;10.05;1.48;;;;;;;;;;5026440;28;20025;-73
2022/01/20 12:06:58;;;;;;;4.90;0.88;;;;;;;;;;5022335;28;20071;-72
2022/01/20 12:09:35;;;;;;;6.03;0.88;;;;;;;;;;5030970;28;20041;-72
2022/01/20 12:12:00;;;;;;;6.90;0.98;;;;;;;;;;5019894;28;20111;-74
2022/01/20 12:14:34;;;;;;;6.82;0.93;;;;;;;;;;5028296;28;20483;-72
2022/01/20 12:17:00;;;;;;;7.60;1.40;;;;;;;;;;5029963;28;20064;-72
2022/01/20 12:19:26;;;;;;;5.50;0.80;;;;;;;;;;5030295;28;20416;-72
2022/01/20 12:21:51;;;;;;;2.42;0.57;;;;;;;;;;5028346;28;20136;-71
2022/01/20 12:24:16;;;;;;;3.22;0.55;;;;;;;;;;5030193;28;20025;-72
2022/01/20 12:26:41;;;;;;;11.00;1.27;;;;;;;;;;5030056;28;20033;-72
2022/01/20 12:29:07;;;;;;;4.03;0.70;;;;;;;;;;5030597;28;20045;-72
2022/01/20 12:31:43;;;;;;;7.60;1.00;;;;;;;;;;5029840;28;20025;-72
2022/01/20 12:34:10;;;;;;;4.60;0.60;;;;;;;;;;5029542;28;20084;-72
2022/01/20 12:36:39;;;;;;;7.57;1.30;;;;;;;;;;5029610;28;20018;-73
2022/01/20 12:39:04;;;;;;;5.53;0.40;;;;;;;;;;5027100;28;20045;-73
2022/01/20 12:41:30;;;;;;;7.70;0.60;;;;;;;;;;5023361;28;20092;-73
2022/01/20 12:44:03;;;;;;;5.22;0.80;;;;;;;;;;5020931;28;20029;-75
2022/01/20 12:46:29;;;;;;;5.13;0.75;;;;;;;;;;5019375;28;20066;-73
2022/01/20 12:48:59;;;;;;;7.63;1.60;;;;;;;;;;5016373;28;20032;-73
2022/01/20 12:51:35;;;;;;;5.20;0.60;;;;;;;;;;5031100;28;20177;-72
2022/01/20 12:54:05;;;;;;;7.82;0.82;;;;;;;;;;5031534;28;20021;-74
2022/01/20 12:56:32;;;;;;;11.50;1.37;;;;;;;;;;5025546;28;20627;-74
2022/01/20 12:58:57;;;;;;;5.40;0.80;;;;;;;;;;5034187;28;20524;-74
2022/01/20 13:01:23;;;;;;;6.03;0.90;;;;;;;;;;5028382;28;20021;-73
2022/01/20 13:03:48;;;;;;;4.55;0.80;;;;;;;;;;5032686;28;20087;-74
2022/01/20 13:06:23;;;;;;;7.63;0.73;;;;;;;;;;5032555;28;20456;-73
2022/01/20 13:09:15;;;;;;;6.35;0.93;;;;;;;;;;5033704;28;20083;-73
2022/01/20 13:11:45;;;;;;;8.27;0.97;;;;;;;;;;5030869;28;20038;-73
2022/01/20 13:14:11;;;;;;;5.57;0.50;;;;;;;;;;5024503;28;20044;-73
2022/01/20 13:16:37;;;;;;;4.97;0.37;;;;;;;;;;5031337;28;20033;-73
2022/01/20 13:19:03;;;;;;;4.90;0.60;;;;;;;;;;5016309;28;20543;-72
2022/01/20 13:21:44;;;;;;;8.83;0.80;;;;;;;;;;5033166;28;20052;-73
2022/01/20 13:24:12;;;;;;;3.90;0.47;;;;;;;;;;5034083;28;20022;-72
2022/01/20 13:27:03;;;;;;;5.57;1.07;;;;;;;;;;5033642;28;20029;-71
2022/01/20 13:29:42;;;;;;;4.23;0.50;;;;;;;;;;5026162;28;20030;-72
2022/01/20 13:32:08;;;;;;;8.87;0.83;;;;;;;;;;5029738;28;20088;-72
2022/01/20 13:34:33;;;;;;;7.77;0.40;;;;;;;;;;5029716;28;20061;-73
2022/01/20 13:36:58;;;;;;;4.00;0.80;;;;;;;;;;5032744;28;20474;-72
2022/01/20 13:39:28;;;;;;;7.90;0.50;;;;;;;;;;5012609;28;20029;-72
2022/01/20 13:45:06;;;;;;;6.13;0.60;;;;;;;;;;5015324;28;20041;-73
2022/01/20 13:47:31;;;;;;;8.77;1.00;;;;;;;;;;5033619;28;20107;-72
2022/01/20 13:49:56;;;;;;;6.30;0.70;;;;;;;;;;5033709;28;20124;-71
2022/01/20 13:52:22;;;;;;;3.53;0.37;;;;;;;;;;5025623;28;20032;-72
2022/01/20 13:54:51;;;;;;;4.00;0.57;;;;;;;;;;5033713;28;20025;-71
2022/01/20 13:57:17;;;;;;;4.10;0.43;;;;;;;;;;5015822;28;20036;-73
2022/01/20 13:59:46;;;;;;;5.60;0.97;;;;;;;;;;5032738;28;20030;-72
2022/01/20 14:02:12;;;;;;;0.87;0.30;;;;;;;;;;5032128;28;20093;-72
2022/01/20 14:04:37;;;;;;;6.57;0.60;;;;;;;;;;5012377;28;20053;-72
2022/01/20 14:07:02;;;;;;;4.07;0.73;;;;;;;;;;5039526;28;20043;-71
2022/01/20 14:09:27;;;;;;;6.63;0.50;;;;;;;;;;5031150;28;20026;-71
2022/01/20 14:11:52;;;;;;;4.27;1.00;;;;;;;;;;5028461;28;20595;-71
2022/01/20 14:14:18;;;;;;;6.80;0.70;;;;;;;;;;5028461;28;20076;-71
2022/01/20 14:16:43;;;;;;;7.03;0.30;;;;;;;;;;5009564;28;20293;-71
2022/01/20 14:19:10;;;;;;;6.27;0.40;;;;;;;;;;5027134;28;20356;-71
2022/01/20 14:21:36;;;;;;;4.70;0.73;;;;;;;;;;5011723;28;20032;-72
2022/01/20 14:24:01;;;;;;;7.57;0.57;;;;;;;;;;5018877;28;20108;-71
2022/01/20 14:26:29;;;;;;;5.00;0.50;;;;;;;;;;5024978;28;20076;-71
2022/01/20 14:28:55;;;;;;;3.97;0.60;;;;;;;;;;5022103;28;20038;-72
2022/01/20 14:31:20;;;;;;;5.53;0.70;;;;;;;;;;5032947;28;20371;-71
2022/01/20 14:33:45;;;;;;;4.17;0.57;;;;;;;;;;5032101;28;20056;-70
2022/01/20 14:36:11;;;;;;;6.10;0.50;;;;;;;;;;5032495;28;20079;-70
2022/01/20 14:38:36;;;;;;;7.90;0.53;;;;;;;;;;5031311;28;20025;-72
2022/01/20 14:41:01;;;;;;;5.40;0.47;;;;;;;;;;5031941;28;20014;-70
2022/01/20 14:43:26;;;;;;;2.23;0.30;;;;;;;;;;5023957;28;20017;-71
2022/01/20 14:45:52;;;;;;;6.00;1.20;;;;;;;;;;5032666;28;20021;-71
2022/01/20 14:48:17;;;;;;;2.90;0.30;;;;;;;;;;5014838;28;20450;-70
2022/01/20 14:50:43;;;;;;;6.43;1.40;;;;;;;;;;5031606;28;20040;-70
2022/01/20 14:53:08;;;;;;;3.47;0.47;;;;;;;;;;5031570;28;20038;-70
2022/01/20 14:55:33;;;;;;;5.83;0.93;;;;;;;;;;5032756;28;20045;-70
2022/01/20 14:57:58;;;;;;;6.93;0.43;;;;;;;;;;5033000;28;20036;-70
2022/01/20 15:00:24;;;;;;;5.33;0.77;;;;;;;;;;5030391;28;20557;-70
2022/01/20 15:02:49;;;;;;;3.40;0.73;;;;;;;;;;5030670;28;20171;-70
2022/01/20 15:05:18;;;;;;;3.80;1.13;;;;;;;;;;5032266;28;20429;-69
2022/01/20 15:07:44;;;;;;;5.90;0.80;;;;;;;;;;5031058;28;20021;-69
2022/01/20 15:10:11;;;;;;;4.03;0.50;;;;;;;;;;5028253;28;20041;-70
2022/01/20 15:12:37;;;;;;;1.97;0.43;;;;;;;;;;5036738;28;20109;-69
2022/01/20 15:15:03;;;;;;;5.97;0.80;;;;;;;;;;5003639;28;20128;-70
2022/01/20 15:17:28;;;;;;;4.77;0.40;;;;;;;;;;5018041;28;20112;-70
2022/01/20 15:19:53;;;;;;;2.07;0.30;;;;;;;;;;5046238;28;20548;-70
2022/01/20 15:22:19;;;;;;;7.60;0.80;;;;;;;;;;5034358;28;20070;-70
2022/01/20 15:24:44;;;;;;;3.63;0.70;;;;;;;;;;5042875;28;20087;-71
2022/01/20 15:27:09;;;;;;;9.20;0.93;;;;;;;;;;5030284;28;20030;-70
2022/01/20 15:29:34;;;;;;;6.23;0.73;;;;;;;;;;5028110;28;20048;-71
2022/01/20 15:31:59;;;;;;;6.37;0.50;;;;;;;;;;5018752;28;20033;-70
2022/01/20 15:34:25;;;;;;;8.57;1.10;;;;;;;;;;5039229;28;20029;-69
2022/01/20 15:36:51;;;;;;;6.80;0.87;;;;;;;;;;5043825;28;20474;-70
2022/01/20 15:39:17;;;;;;;3.50;0.80;;;;;;;;;;5013944;28;20029;-70
2022/01/20 15:41:43;;;;;;;6.73;0.83;;;;;;;;;;5021580;28;20024;-70
2022/01/20 15:44:08;;;;;;;5.33;0.73;;;;;;;;;;5028953;28;20022;-71
2022/01/20 15:46:35;;;;;;;5.40;0.80;;;;;;;;;;5027680;28;20132;-71